Time;durP1;ratioP1;P1;durP2;ratioP2;P2;SDS_P1;SDS_P2;PMS_P1;PMS_P2;Temp;Humidity;BMP_temperature;BMP_pressure;BME280_temperature;BME280_humidity;BME280_pressure;Samples;Min_cycle;Max_cycle;Signal;HPM_P1;HPM_P2
2022/03/11 00:02:06;;;;;;;145.10;70.82;;;;;;;18.01;100.00;98669.69;5008923;28;20387;-67
2022/03/11 00:04:55;;;;;;;159.40;72.75;;;;;;;18.00;100.00;98678.44;5008040;28;20073;-67
2022/03/11 00:07:43;;;;;;;151.93;74.72;;;;;;;18.04;100.00;98675.53;5006253;28;20045;-68
2022/03/11 00:10:26;;;;;;;170.05;80.18;;;;;;;18.08;100.00;98686.66;5007123;28;20080;-68
2022/03/11 00:13:15;;;;;;;154.07;79.55;;;;;;;18.08;100.00;98684.03;5007227;28;20088;-68
2022/03/11 00:15:57;;;;;;;162.85;80.28;;;;;;;18.05;100.00;98677.22;4988767;28;20082;-67
2022/03/11 00:18:46;;;;;;;162.35;79.05;;;;;;;18.11;100.00;98691.69;5004150;28;20537;-67
2022/03/11 00:21:29;;;;;;;152.88;78.32;;;;;;;18.08;100.00;98686.66;4992006;28;20066;-66
2022/03/11 00:24:24;;;;;;;164.32;80.75;;;;;;;18.07;100.00;98690.19;5007525;28;20172;-67
2022/03/11 00:26:59;;;;;;;155.88;78.25;;;;;;;18.04;100.00;98693.00;5007800;28;20042;-67
2022/03/11 00:29:47;;;;;;;155.50;77.95;;;;;;;17.91;100.00;98691.09;5006853;28;20054;-68
2022/03/11 00:32:38;;;;;;;143.57;71.00;;;;;;;18.01;100.00;98693.16;5007198;28;20050;-67
2022/03/11 00:35:27;;;;;;;138.30;67.80;;;;;;;18.01;100.00;98690.56;5007767;28;20050;-67
2022/03/11 00:38:09;;;;;;;128.00;64.63;;;;;;;18.00;100.00;98699.31;5005195;28;20063;-67
2022/03/11 00:40:58;;;;;;;124.03;60.05;;;;;;;17.90;100.00;98699.84;5007382;28;20072;-67
2022/03/11 00:43:40;;;;;;;131.40;60.55;;;;;;;17.88;100.00;98708.69;5007047;28;20061;-68
2022/03/11 00:46:29;;;;;;;113.80;57.28;;;;;;;17.88;100.00;98711.28;5004289;28;20050;-67
2022/03/11 00:49:18;;;;;;;112.03;54.05;;;;;;;17.87;100.00;98720.91;5006322;28;20050;-67
2022/03/11 00:52:00;;;;;;;102.25;49.53;;;;;;;17.84;100.00;98721.06;5005706;28;20120;-68
2022/03/11 00:54:49;;;;;;;96.95;48.08;;;;;;;17.85;100.00;98717.53;5006735;28;20078;-66
2022/03/11 00:57:32;;;;;;;93.13;46.67;;;;;;;17.83;100.00;98723.75;5006243;28;20045;-67
2022/03/11 01:00:22;;;;;;;94.43;44.50;;;;;;;17.76;100.00;98717.22;5006281;28;20046;-66
2022/03/11 01:03:04;;;;;;;96.37;45.07;;;;;;;17.78;100.00;98731.00;5005171;28;20046;-67
2022/03/11 01:05:53;;;;;;;83.38;41.78;;;;;;;17.75;100.00;98732.03;5006142;28;20167;-68
2022/03/11 01:08:35;;;;;;;84.20;40.33;;;;;;;17.70;100.00;98726.25;4972569;28;20377;-68
2022/03/11 01:11:24;;;;;;;76.32;39.13;;;;;;;17.73;100.00;98733.03;5006069;28;20498;-68
2022/03/11 01:14:13;;;;;;;86.00;39.08;;;;;;;17.69;100.00;98735.00;5004876;28;20042;-68
2022/03/11 01:17:02;;;;;;;76.45;36.97;;;;;;;17.67;100.00;98739.44;4977579;28;20843;-67
2022/03/11 01:19:44;;;;;;;71.65;36.92;;;;;;;17.71;100.00;98743.56;5002166;28;20056;-67
2022/03/11 01:22:33;;;;;;;87.38;37.92;;;;;;;17.72;100.00;98741.81;5003647;28;20052;-68
2022/03/11 01:25:15;;;;;;;76.15;35.97;;;;;;;17.80;100.00;98753.44;5003503;28;20299;-68
2022/03/11 01:28:04;;;;;;;67.28;34.17;;;;;;;17.76;100.00;98748.50;5005127;28;20060;-67
2022/03/11 01:30:46;;;;;;;82.30;35.75;;;;;;;17.81;100.00;98742.09;5004335;28;20050;-68
2022/03/11 01:33:36;;;;;;;78.85;35.17;;;;;;;17.76;100.00;98751.94;5005081;28;20053;-68
2022/03/11 01:36:17;;;;;;;81.07;35.13;;;;;;;17.82;100.00;98751.59;4984580;28;20217;-68
2022/03/11 01:39:07;;;;;;;66.82;36.17;;;;;;;17.76;100.00;98753.72;4992986;28;20045;-68
2022/03/11 01:41:49;;;;;;;81.93;36.55;;;;;;;17.71;100.00;98755.75;5008780;28;20108;-67
2022/03/11 01:44:38;;;;;;;73.82;34.92;;;;;;;17.79;100.00;98766.56;5002415;28;20089;-67
2022/03/11 01:47:26;;;;;;;75.57;35.58;;;;;;;17.85;100.00;98771.44;5003858;28;20053;-68
2022/03/11 01:50:10;;;;;;;75.57;35.90;;;;;;;17.91;100.00;98774.50;4992972;28;20813;-68
2022/03/11 01:53:07;;;;;;;74.20;35.90;;;;;;;17.94;100.00;98783.94;5023795;28;20055;-68
2022/03/11 01:55:42;;;;;;;87.13;37.03;;;;;;;18.06;100.00;98787.56;5001666;28;20078;-68
2022/03/11 01:58:32;;;;;;;74.15;36.17;;;;;;;18.10;100.00;98783.88;5002881;28;20046;-68
2022/03/11 02:01:15;;;;;;;70.20;36.72;;;;;;;18.15;100.00;98787.03;5003363;28;20822;-68
2022/03/11 02:04:11;;;;;;;70.28;36.15;;;;;;;18.10;100.00;98792.53;5003553;28;20131;-68
2022/03/11 02:06:46;;;;;;;80.65;36.67;;;;;;;18.28;100.00;98787.97;4984461;28;20080;-68
2022/03/11 02:09:35;;;;;;;91.05;37.78;;;;;;;18.40;100.00;98789.03;5002103;28;20049;-68
2022/03/11 02:12:39;;;;;;;84.43;38.35;;;;;;;18.47;100.00;98798.16;5001010;28;20054;-68
2022/03/11 02:15:27;;;;;;;81.18;39.42;;;;;;;18.54;100.00;98795.09;5002973;28;20048;-68
2022/03/11 02:18:10;;;;;;;104.30;42.33;;;;;;;18.59;100.00;98800.91;5003837;28;20045;-68
2022/03/11 02:21:07;;;;;;;111.00;47.22;;;;;;;18.78;100.00;98797.16;5004734;28;20500;-67
2022/03/11 02:23:50;;;;;;;96.38;46.53;;;;;;;18.99;100.00;98807.13;5004011;28;20049;-68
2022/03/11 02:26:45;;;;;;;111.15;45.53;;;;;;;19.34;100.00;98811.91;5002266;28;20074;-68
2022/03/11 02:29:20;;;;;;;96.82;46.47;;;;;;;19.59;100.00;98812.03;5002183;28;21509;-68
2022/03/11 02:32:16;;;;;;;97.57;47.20;;;;;;;19.88;99.87;98815.34;4986006;28;20152;-68
2022/03/11 02:34:57;;;;;;;89.45;46.05;;;;;;;20.13;99.23;98817.19;5003465;28;20050;-67
2022/03/11 02:37:47;;;;;;;81.90;44.78;;;;;;;20.36;99.49;98819.13;5003076;28;20057;-68
2022/03/11 02:40:41;;;;;;;97.97;48.50;;;;;;;20.46;95.80;98827.19;5007676;28;20096;-67
2022/03/11 02:43:30;;;;;;;97.72;46.80;;;;;;;20.64;94.90;98828.56;4987123;28;20054;-68
2022/03/11 02:46:21;;;;;;;91.07;45.55;;;;;;;20.79;91.61;98832.75;4996678;28;20058;-68
2022/03/11 02:49:03;;;;;;;112.55;46.25;;;;;;;21.04;87.78;98837.13;4991541;28;20052;-68
2022/03/11 02:51:52;;;;;;;93.30;47.80;;;;;;;21.20;86.87;98847.38;5004287;28;20042;-67
2022/03/11 02:54:34;;;;;;;102.68;48.75;;;;;;;21.41;85.15;98835.38;4986784;28;20100;-68
2022/03/11 02:57:25;;;;;;;105.97;51.08;;;;;;;21.59;85.16;98847.16;5003068;28;20551;-68
2022/03/11 03:00:07;;;;;;;106.80;55.80;;;;;;;21.95;83.43;98858.56;5001319;28;20060;-68
2022/03/11 03:02:57;;;;;;;110.35;52.97;;;;;;;22.04;80.36;98857.88;5021703;28;20052;-69
2022/03/11 03:05:40;;;;;;;109.37;56.57;;;;;;;22.42;82.51;98865.53;4986170;28;20038;-68
2022/03/11 03:08:29;;;;;;;109.78;53.20;;;;;;;22.69;76.77;98868.69;5015432;28;20073;-67
2022/03/11 03:11:10;;;;;;;106.28;52.70;;;;;;;23.23;73.80;98871.47;5013286;28;20097;-68
2022/03/11 03:14:00;;;;;;;100.10;53.83;;;;;;;22.95;74.88;98866.69;4989558;28;20061;-68
2022/03/11 03:16:41;;;;;;;97.25;52.53;;;;;;;22.86;78.74;98872.66;5004350;28;20536;-68
2022/03/11 03:19:31;;;;;;;98.40;49.90;;;;;;;23.02;74.60;98874.94;5005283;28;20057;-68
2022/03/11 03:22:14;;;;;;;121.13;52.97;;;;;;;22.88;78.26;98873.41;5010737;28;20381;-68
2022/03/11 03:25:03;;;;;;;98.78;50.88;;;;;;;23.03;77.22;98871.38;5024788;28;20049;-69
2022/03/11 03:27:45;;;;;;;103.97;50.40;;;;;;;23.20;74.36;98873.50;5024884;28;20053;-68
2022/03/11 03:30:35;;;;;;;114.57;51.72;;;;;;;23.77;74.90;98878.59;5025083;28;20060;-68
2022/03/11 03:33:17;;;;;;;;;;;;;;;23.90;69.65;98884.53;5000555;28;20053;-67
2022/03/11 03:36:12;;;;;;;110.70;47.85;;;;;;;23.94;68.21;98890.38;5002008;28;19935;-68
2022/03/11 03:38:59;;;;;;;85.00;45.22;;;;;;;24.00;71.13;98895.16;5011669;28;20052;-67
2022/03/11 03:41:49;;;;;;;89.60;43.30;;;;;;;23.94;68.49;98895.66;5005561;28;20054;-68
2022/03/11 03:44:31;;;;;;;79.03;37.97;;;;;;;23.89;66.46;98897.78;5004121;28;20096;-67
2022/03/11 03:47:20;;;;;;;80.88;38.35;;;;;;;24.21;66.18;98905.72;4990449;28;20048;-67
2022/03/11 03:50:03;;;;;;;84.65;37.58;;;;;;;24.31;67.65;98902.22;5013526;28;20046;-67
2022/03/11 03:52:52;;;;;;;72.55;34.88;;;;;;;24.57;65.48;98901.84;5002999;28;20050;-67
2022/03/11 03:55:34;;;;;;;73.47;32.90;;;;;;;24.94;64.20;98900.44;5003046;28;20054;-67
2022/03/11 03:58:22;;;;;;;64.18;31.35;;;;;;;25.39;60.12;98907.97;4999944;28;20383;-65
2022/03/11 04:01:03;;;;;;;70.50;30.45;;;;;;;25.61;59.24;98906.97;5006550;28;20382;-64
2022/03/11 04:03:53;;;;;;;61.85;28.30;;;;;;;25.78;56.97;98903.69;5003312;28;20120;-64
2022/03/11 04:06:38;;;;;;;62.63;28.60;;;;;;;26.18;58.30;98906.22;5003593;28;20054;-62
2022/03/11 04:09:27;;;;;;;70.82;30.65;;;;;;;26.05;59.52;98895.91;5007091;28;20050;-65
2022/03/11 04:12:09;;;;;;;56.10;30.88;;;;;;;26.33;56.56;98904.84;5002743;28;20046;-66
2022/03/11 04:14:58;;;;;;;59.25;30.60;;;;;;;26.60;55.80;98901.47;5003225;28;20061;-65
2022/03/11 04:17:40;;;;;;;133.40;36.03;;;;;;;26.95;56.38;98901.72;5003083;28;20049;-65
2022/03/11 04:20:29;;;;;;;51.33;30.48;;;;;;;27.07;54.47;98906.81;5001068;28;20052;-65
2022/03/11 04:23:17;;;;;;;69.05;28.70;;;;;;;27.22;52.84;98905.38;5006040;28;20053;-65
2022/03/11 04:26:06;;;;;;;64.05;28.75;;;;;;;27.36;51.21;98902.25;4989501;28;20081;-65
2022/03/11 04:28:48;;;;;;;61.40;28.67;;;;;;;27.89;48.65;98912.97;5002323;28;20061;-66
2022/03/11 04:31:37;;;;;;;59.15;27.98;;;;;;;27.74;48.99;98903.88;5005044;28;20049;-66
2022/03/11 04:34:25;;;;;;;56.85;25.63;;;;;;;28.36;51.25;98904.81;5005349;28;20077;-66
2022/03/11 04:37:20;;;;;;;69.47;26.48;;;;;;;28.47;48.74;98907.25;5004031;28;20042;-65
2022/03/11 04:39:57;;;;;;;53.97;23.38;;;;;;;28.26;47.05;98915.50;5004454;28;20590;-65
2022/03/11 04:42:46;;;;;;;45.97;20.60;;;;;;;28.42;47.99;98915.63;5004884;28;20058;-64
2022/03/11 04:45:34;;;;;;;57.15;20.35;;;;;;;28.85;46.73;98911.34;4995411;28;20061;-64
2022/03/11 04:48:28;;;;;;;38.00;19.48;;;;;;;28.76;46.81;98906.97;5006482;28;20200;-64
2022/03/11 04:51:03;;;;;;;38.67;18.55;;;;;;;28.87;47.75;98909.38;5005730;28;20046;-65
2022/03/11 04:53:54;;;;;;;37.28;16.42;;;;;;;28.93;44.39;98916.72;5006553;28;20048;-65
2022/03/11 04:56:37;;;;;;;30.73;16.20;;;;;;;29.35;47.62;98910.63;5006533;28;20049;-66
2022/03/11 04:59:26;;;;;;;36.42;17.40;;;;;;;29.27;44.60;98920.22;5001988;28;20474;-66
2022/03/11 05:02:08;;;;;;;36.08;17.33;;;;;;;29.02;46.77;98918.44;5005564;28;20046;-64
2022/03/11 05:05:03;;;;;;;38.75;13.77;;;;;;;28.77;44.81;98908.66;5003034;28;20061;-65
2022/03/11 05:07:39;;;;;;;28.98;12.00;;;;;;;29.43;45.45;98916.00;5000001;28;20061;-65
2022/03/11 05:10:27;;;;;;;25.08;13.05;;;;;;;29.00;45.71;98920.41;4995306;28;20034;-65
2022/03/11 05:13:09;;;;;;;30.38;11.85;;;;;;;29.65;44.15;98921.56;5002555;28;20504;-63
2022/03/11 05:15:58;;;;;;;31.27;12.88;;;;;;;29.83;42.52;98912.66;5006884;28;20052;-65
2022/03/11 05:18:40;;;;;;;34.25;13.80;;;;;;;29.76;43.85;98912.47;4997904;28;20045;-66
2022/03/11 05:21:29;;;;;;;29.00;13.75;;;;;;;30.41;43.75;98909.94;5001741;28;20065;-69
2022/03/11 05:24:14;;;;;;;47.88;14.52;;;;;;;30.53;40.67;98916.59;5003886;28;20104;-68
2022/03/11 05:27:04;;;;;;;30.00;13.82;;;;;;;30.43;44.40;98907.94;4982891;28;20185;-69
2022/03/11 05:29:46;;;;;;;37.03;14.23;;;;;;;30.28;42.82;98910.41;5001025;28;20723;-67
2022/03/11 05:32:51;;;;;;;37.92;15.15;;;;;;;30.10;45.66;98900.94;5001465;28;20112;-68
2022/03/11 05:35:33;;;;;;;36.30;13.43;;;;;;;30.31;44.30;98898.63;5008306;28;20125;-64
2022/03/11 05:38:22;;;;;;;26.65;10.77;;;;;;;30.49;41.68;98904.59;5020899;28;20107;-68
2022/03/11 05:41:05;;;;;;;20.27;11.57;;;;;;;30.44;46.59;98896.28;5014946;28;20053;-65
2022/03/11 05:43:54;;;;;;;32.25;12.20;;;;;;;30.36;39.89;98902.44;5012703;28;20326;-68
2022/03/11 05:46:39;;;;;;;35.95;12.20;;;;;;;30.77;42.81;98900.63;5006253;28;20065;-65
2022/03/11 05:49:29;;;;;;;36.47;11.43;;;;;;;30.51;40.68;98897.31;5016271;28;20050;-65
2022/03/11 05:52:10;;;;;;;35.15;9.90;;;;;;;30.60;41.88;98906.13;5012990;28;20128;-65
2022/03/11 05:55:00;;;;;;;26.27;9.30;;;;;;;30.46;40.90;98899.63;5001214;28;20053;-66
2022/03/11 05:57:42;;;;;;;22.38;8.45;;;;;;;30.65;40.30;98893.97;5012074;28;20045;-66
2022/03/11 06:00:31;;;;;;;36.20;9.82;;;;;;;30.65;42.47;98888.66;5005202;28;20050;-63
2022/03/11 06:03:13;;;;;;;25.23;8.82;;;;;;;31.09;39.61;98891.75;5011563;28;20127;-66
2022/03/11 06:06:02;;;;;;;18.88;8.13;;;;;;;30.55;40.55;98895.16;5006047;28;20053;-64
2022/03/11 06:08:44;;;;;;;23.95;7.85;;;;;;;30.67;42.28;98878.69;4999393;28;20060;-63
2022/03/11 06:11:36;;;;;;;22.60;7.63;;;;;;;30.63;41.34;98889.84;5003570;28;20050;-64
2022/03/11 06:14:17;;;;;;;23.13;7.60;;;;;;;30.78;40.02;98883.66;5011016;28;20073;-64
2022/03/11 06:17:07;;;;;;;22.13;7.40;;;;;;;30.81;40.19;98880.63;5014856;28;20037;-64
2022/03/11 06:19:49;;;;;;;18.88;6.97;;;;;;;30.59;39.24;98881.34;5014179;28;20056;-65
2022/03/11 06:22:39;;;;;;;18.65;7.53;;;;;;;31.10;39.33;98885.44;5010636;28;20045;-64
2022/03/11 06:25:21;;;;;;;14.65;5.55;;;;;;;30.60;40.42;98875.03;5011777;28;20058;-65
2022/03/11 06:28:10;;;;;;;17.05;6.00;;;;;;;30.79;39.50;98873.84;5012262;28;20054;-64
2022/03/11 06:30:52;;;;;;;15.05;6.65;;;;;;;30.77;39.27;98874.00;5012999;28;20397;-63
2022/03/11 06:33:41;;;;;;;23.70;7.85;;;;;;;30.13;39.58;98866.88;5000356;28;20504;-63
2022/03/11 06:36:22;;;;;;;17.58;6.75;;;;;;;30.29;41.24;98858.09;5016389;28;20563;-65
2022/03/11 06:39:14;;;;;;;22.63;6.55;;;;;;;30.47;42.85;98856.09;5011308;28;20054;-65
2022/03/11 06:41:55;;;;;;;18.13;6.38;;;;;;;30.68;38.89;98851.09;5011957;28;20044;-64
2022/03/11 06:44:44;;;;;;;19.10;6.32;;;;;;;30.56;38.78;98849.78;5002899;28;20041;-63
2022/03/11 06:47:26;;;;;;;25.70;6.40;;;;;;;30.79;38.59;98850.72;5004659;28;20060;-64
2022/03/11 06:50:17;;;;;;;20.08;7.03;;;;;;;30.79;38.74;98845.41;5004551;28;20045;-64
2022/03/11 06:52:59;;;;;;;28.33;6.95;;;;;;;30.67;39.80;98848.59;4995857;28;20111;-65
2022/03/11 06:55:48;;;;;;;18.25;6.68;;;;;;;30.87;42.54;98838.41;5006419;28;20149;-66
2022/03/11 06:58:29;;;;;;;27.35;6.90;;;;;;;30.67;38.44;98833.44;5012383;28;20475;-66
2022/03/11 07:01:19;;;;;;;24.92;7.60;;;;;;;30.72;41.12;98828.47;5005253;28;20045;-65
2022/03/11 07:04:02;;;;;;;23.05;7.78;;;;;;;30.72;41.07;98830.31;5009039;28;20084;-64
2022/03/11 07:06:51;;;;;;;18.23;5.90;;;;;;;30.40;38.99;98825.84;5020838;28;20152;-67
2022/03/11 07:09:33;;;;;;;22.20;6.22;;;;;;;30.35;36.32;98822.84;5023486;28;20111;-66
2022/03/11 07:12:22;;;;;;;17.38;6.30;;;;;;;30.36;40.06;98813.88;5016091;28;20774;-66
2022/03/11 07:15:05;;;;;;;25.70;7.25;;;;;;;30.05;38.86;98821.69;5005749;28;20049;-65
2022/03/11 07:17:53;;;;;;;24.75;6.82;;;;;;;30.29;38.10;98818.19;5005130;28;20053;-65
2022/03/11 07:20:35;;;;;;;24.85;7.05;;;;;;;30.39;42.75;98797.59;5004482;28;20045;-65
2022/03/11 07:23:43;;;;;;;20.80;7.22;;;;;;;30.28;40.34;98798.75;5000814;28;20049;-66
2022/03/11 07:26:25;;;;;;;27.95;8.45;;;;;;;30.10;39.17;98797.25;5010567;28;20046;-65
2022/03/11 07:29:14;;;;;;;21.63;7.57;;;;;;;30.30;41.69;98796.78;5010406;28;20147;-66
2022/03/11 07:31:56;;;;;;;25.05;9.65;;;;;;;30.25;40.62;98791.09;5001339;28;20049;-65
2022/03/11 07:34:51;;;;;;;25.73;7.82;;;;;;;30.02;40.29;98784.81;4999075;28;20073;-65
2022/03/11 07:37:40;;;;;;;20.40;6.93;;;;;;;30.02;40.33;98775.00;4986830;28;20149;-65
2022/03/11 07:40:28;;;;;;;18.50;7.45;;;;;;;30.14;41.25;98772.03;4983518;28;20061;-65
2022/03/11 07:43:13;;;;;;;21.75;8.38;;;;;;;30.02;42.66;98772.34;4984201;28;20065;-65
2022/03/11 07:46:01;;;;;;;23.98;11.43;;;;;;;29.86;42.61;98761.69;4984148;28;20042;-64
2022/03/11 07:48:43;;;;;;;31.67;10.80;;;;;;;29.88;41.71;98765.03;4983600;28;20133;-64
2022/03/11 07:51:32;;;;;;;16.67;6.82;;;;;;;29.75;37.66;98770.03;4982843;28;20493;-65
2022/03/11 07:54:13;;;;;;;19.02;6.97;;;;;;;29.78;38.55;98753.72;4983293;28;20050;-64
2022/03/11 07:57:04;;;;;;;21.45;7.60;;;;;;;29.65;36.61;98753.41;4984506;28;20054;-64
2022/03/11 07:59:46;;;;;;;23.05;8.40;;;;;;;29.63;39.15;98750.06;4986679;28;20046;-65
2022/03/11 08:02:35;;;;;;;23.42;9.60;;;;;;;29.63;39.98;98736.78;4984710;28;20056;-65
2022/03/11 08:05:17;;;;;;;25.70;9.20;;;;;;;29.66;38.58;98725.84;4987903;28;20105;-65
2022/03/11 08:08:06;;;;;;;27.55;8.10;;;;;;;29.52;41.05;98726.53;4988394;28;20643;-66
2022/03/11 08:10:54;;;;;;;33.60;9.25;;;;;;;29.61;38.69;98718.38;4988529;28;20061;-66
2022/03/11 08:13:46;;;;;;;30.10;8.98;;;;;;;29.61;39.81;98723.69;4986337;28;20541;-65
2022/03/11 08:16:34;;;;;;;29.15;9.60;;;;;;;29.65;41.30;98713.56;4988984;28;20054;-65
2022/03/11 08:19:17;;;;;;;29.08;9.63;;;;;;;29.61;40.95;98706.94;4989059;28;20474;-65
2022/03/11 08:22:12;;;;;;;18.73;8.35;;;;;;;29.48;38.25;98707.41;4987979;28;20038;-64
2022/03/11 08:24:47;;;;;;;19.13;6.57;;;;;;;29.53;37.46;98698.97;4982994;28;20038;-65
2022/03/11 08:27:46;;;;;;;21.05;6.85;;;;;;;29.58;41.37;98692.16;4986315;28;20046;-65
2022/03/11 08:30:22;;;;;;;24.23;8.88;;;;;;;29.44;38.97;98689.34;4987522;28;20220;-65
2022/03/11 08:33:22;;;;;;;25.55;7.30;;;;;;;29.41;37.67;98689.66;4992243;28;20053;-65
2022/03/11 08:36:17;;;;;;;26.02;7.55;;;;;;;29.49;38.88;98681.69;5012136;28;20050;-65
2022/03/11 08:39:14;;;;;;;25.08;8.00;;;;;;;29.25;38.04;98685.13;5011208;28;20120;-65
2022/03/11 08:41:49;;;;;;;24.30;9.23;;;;;;;29.33;39.38;98673.69;5008062;28;20265;-64
2022/03/11 08:44:45;;;;;;;31.80;9.87;;;;;;;29.35;40.45;98669.06;5007556;28;20045;-65
2022/03/11 08:47:20;;;;;;;26.67;8.77;;;;;;;29.41;40.59;98663.09;5006266;28;20295;-65
2022/03/11 08:50:10;;;;;;;36.53;10.13;;;;;;;29.52;41.50;98649.50;5005613;28;20873;-65
2022/03/11 08:53:01;;;;;;;36.97;9.98;;;;;;;29.15;41.62;98653.44;5007013;28;20077;-65
2022/03/11 08:55:43;;;;;;;26.42;9.50;;;;;;;29.22;41.98;98649.13;5007394;28;20061;-65
2022/03/11 08:58:31;;;;;;;27.02;9.07;;;;;;;29.24;41.94;98641.84;5005021;28;20181;-65
2022/03/11 09:01:14;;;;;;;23.92;9.00;;;;;;;29.30;42.93;98629.72;4999636;28;20046;-64
2022/03/11 09:04:03;;;;;;;32.47;9.88;;;;;;;29.04;40.75;98629.88;4992784;28;20136;-65
2022/03/11 09:06:44;;;;;;;28.30;9.48;;;;;;;29.06;42.64;98619.09;4995129;28;20057;-65
2022/03/11 09:09:34;;;;;;;29.27;8.90;;;;;;;29.09;41.71;98621.41;5007389;28;20050;-66
2022/03/11 09:12:15;;;;;;;28.55;9.60;;;;;;;29.04;42.29;98613.13;5006661;28;20119;-64
2022/03/11 09:15:10;;;;;;;30.42;9.07;;;;;;;29.12;42.52;98616.63;5006264;28;20045;-65
2022/03/11 09:17:53;;;;;;;27.85;9.32;;;;;;;29.01;43.07;98608.16;5006243;28;20077;-65
2022/03/11 09:20:42;;;;;;;18.00;7.60;;;;;;;29.02;42.92;98609.81;5002704;28;20054;-65
2022/03/11 09:23:23;;;;;;;20.52;7.55;;;;;;;29.04;40.73;98595.41;5005518;28;20164;-65
2022/03/11 09:26:13;;;;;;;18.70;6.53;;;;;;;29.04;39.95;98595.41;5005213;28;20362;-66
2022/03/11 09:28:55;;;;;;;26.48;7.50;;;;;;;29.13;39.48;98604.19;5004541;28;20050;-66
2022/03/11 09:31:45;;;;;;;25.80;7.35;;;;;;;29.10;41.68;98592.06;5006591;28;20064;-65
2022/03/11 09:34:26;;;;;;;28.65;8.55;;;;;;;29.01;41.88;98587.75;5005110;28;20074;-65
2022/03/11 09:37:25;;;;;;;26.00;7.88;;;;;;;28.92;43.18;98580.78;5003560;28;20726;-65
2022/03/11 09:40:01;;;;;;;20.77;8.68;;;;;;;28.85;44.24;98583.25;5004066;28;20140;-66
2022/03/11 09:42:50;;;;;;;25.75;7.68;;;;;;;28.58;41.09;98590.63;5005417;28;20050;-64
2022/03/11 09:45:38;;;;;;;24.02;8.30;;;;;;;28.51;45.57;98575.38;5004893;28;20062;-64
2022/03/11 09:48:34;;;;;;;20.95;7.82;;;;;;;28.56;43.03;98572.25;5006223;28;20045;-65
2022/03/11 09:51:12;;;;;;;23.33;8.15;;;;;;;28.49;44.42;98566.78;5005400;28;20046;-65
2022/03/11 09:54:01;;;;;;;26.52;8.50;;;;;;;28.42;42.98;98571.03;5005495;28;20398;-64
2022/03/11 09:56:51;;;;;;;32.33;8.20;;;;;;;28.37;43.78;98562.75;5002238;28;20053;-65
2022/03/11 09:59:46;;;;;;;20.33;7.05;;;;;;;28.33;43.71;98560.59;5005768;28;20104;-65
2022/03/11 10:02:47;;;;;;;19.80;7.43;;;;;;;28.23;42.93;98550.13;5008197;28;20046;-64
2022/03/11 10:05:59;;;;;;;26.13;8.52;;;;;;;28.24;44.68;98557.09;5000093;28;20069;-65
2022/03/11 10:08:38;;;;;;;24.80;8.95;;;;;;;28.26;43.78;98555.09;5000375;28;20046;-65
2022/03/11 10:11:26;;;;;;;33.88;9.43;;;;;;;28.19;42.51;98548.78;5004969;28;20046;-65
2022/03/11 10:14:14;;;;;;;28.00;9.38;;;;;;;28.24;43.91;98545.66;5004851;28;20077;-65
2022/03/11 10:17:04;;;;;;;21.13;7.80;;;;;;;28.34;44.54;98551.63;5005759;28;20050;-65
2022/03/11 10:20:10;;;;;;;21.90;8.68;;;;;;;28.35;45.15;98553.28;5002180;28;20365;-65
2022/03/11 10:23:04;;;;;;;19.58;8.52;;;;;;;28.31;44.51;98541.38;5001263;28;20046;-65
2022/03/11 10:25:39;;;;;;;26.83;8.25;;;;;;;28.27;44.27;98540.84;4998020;28;20133;-65
2022/03/11 10:28:34;;;;;;;26.63;9.02;;;;;;;28.26;45.19;98539.19;4985767;28;20045;-67
2022/03/11 10:31:10;;;;;;;22.73;9.13;;;;;;;28.23;44.21;98538.69;4999337;28;20148;-66
2022/03/11 10:34:41;;;;;;;22.90;8.43;;;;;;;28.22;44.83;98535.22;5004809;28;20616;-64
2022/03/11 10:37:35;;;;;;;30.33;9.10;;;;;;;28.19;44.08;98532.88;4959513;28;20061;-64
2022/03/11 10:40:11;;;;;;;25.65;8.63;;;;;;;28.13;44.46;98530.84;4993682;28;20573;-64
2022/03/11 10:43:09;;;;;;;27.05;8.70;;;;;;;28.09;44.76;98529.53;5003115;28;20038;-65
2022/03/11 10:45:53;;;;;;;23.55;7.82;;;;;;;28.05;43.99;98525.53;4997478;28;20578;-64
2022/03/11 10:48:53;;;;;;;28.02;8.27;;;;;;;28.09;44.54;98527.69;5003152;28;20058;-64
2022/03/11 10:51:36;;;;;;;21.52;7.78;;;;;;;28.06;43.64;98520.06;5000603;28;20057;-64
2022/03/11 10:54:28;;;;;;;23.98;7.15;;;;;;;28.06;42.65;98521.88;4997192;28;20053;-65
2022/03/11 10:57:21;;;;;;;18.63;7.60;;;;;;;28.02;42.91;98526.66;5001198;28;20156;-64
2022/03/11 11:00:22;;;;;;;22.92;7.40;;;;;;;27.95;42.42;98517.69;5008304;28;20112;-65
2022/03/11 11:03:15;;;;;;;28.15;7.40;;;;;;;27.89;43.72;98521.00;4993391;28;20236;-65
2022/03/11 11:06:04;;;;;;;28.90;6.50;;;;;;;27.91;42.40;98524.31;4991240;28;20054;-64
2022/03/11 11:08:53;;;;;;;16.88;6.90;;;;;;;27.89;43.62;98528.94;4999202;28;20124;-66
2022/03/11 11:11:36;;;;;;;20.20;7.03;;;;;;;27.80;43.40;98514.81;5002253;28;20511;-65
2022/03/11 11:14:25;;;;;;;19.20;6.72;;;;;;;27.84;43.22;98522.47;5002309;28;20334;-65
2022/03/11 11:17:07;;;;;;;18.40;6.43;;;;;;;27.79;42.39;98515.81;5001658;28;20185;-64
2022/03/11 11:20:00;;;;;;;21.10;7.40;;;;;;;27.79;42.08;98518.47;4999896;28;20045;-65
2022/03/11 11:22:43;;;;;;;16.40;7.10;;;;;;;27.79;43.55;98515.81;4986414;28;20071;-65
2022/03/11 11:25:32;;;;;;;28.45;7.40;;;;;;;27.78;43.70;98516.78;4990335;28;20124;-65
2022/03/11 11:28:20;;;;;;;22.98;7.60;;;;;;;27.71;44.07;98513.13;4996392;28;20054;-65
2022/03/11 11:31:08;;;;;;;26.65;7.30;;;;;;;27.62;43.56;98508.78;4988849;28;20049;-65
2022/03/11 11:33:54;;;;;;;23.27;6.88;;;;;;;27.53;44.29;98509.75;5003021;28;20049;-65
2022/03/11 11:36:49;;;;;;;24.73;6.53;;;;;;;27.47;43.29;98510.31;5010578;28;20369;-65
2022/03/11 11:39:36;;;;;;;30.08;6.25;;;;;;;27.41;43.37;98516.25;5014633;28;20448;-65
2022/03/11 11:42:28;;;;;;;15.02;6.15;;;;;;;27.34;44.63;98510.75;5009491;28;20385;-65
2022/03/11 11:45:21;;;;;;;18.63;6.25;;;;;;;27.29;44.22;98512.22;5010318;28;20049;-65
2022/03/11 11:48:45;;;;;;;19.98;7.45;;;;;;;27.22;43.67;98511.97;5014174;28;20046;-66
2022/03/11 11:51:40;;;;;;;20.15;6.68;;;;;;;27.16;44.29;98511.78;5007676;28;20050;-65
2022/03/11 11:54:33;;;;;;;17.83;6.03;;;;;;;27.12;45.67;98511.25;5008007;28;20140;-64
2022/03/11 11:57:25;;;;;;;19.17;6.18;;;;;;;27.06;46.50;98516.34;4991945;28;20059;-66
2022/03/11 12:00:23;;;;;;;15.85;5.18;;;;;;;27.00;47.80;98508.03;5009017;28;20107;-66
2022/03/11 12:03:16;;;;;;;15.85;5.03;;;;;;;26.91;47.62;98513.41;5007388;28;20504;-66
2022/03/11 12:05:58;;;;;;;29.52;5.45;;;;;;;26.80;48.13;98506.53;5008275;28;20046;-65
2022/03/11 12:08:54;;;;;;;17.25;4.22;;;;;;;26.76;47.71;98513.09;5011841;28;20053;-66
2022/03/11 12:11:42;;;;;;;17.65;5.28;;;;;;;26.67;46.57;98517.47;5012032;28;20041;-65
2022/03/11 12:14:30;;;;;;;25.58;6.07;;;;;;;26.63;48.05;98516.13;5012303;28;20045;-64
2022/03/11 12:17:11;;;;;;;17.25;4.88;;;;;;;26.55;47.09;98518.69;5015038;28;20068;-65
2022/03/11 12:20:01;;;;;;;18.20;5.07;;;;;;;26.47;48.17;98517.78;5010937;28;20570;-64
2022/03/11 12:23:02;;;;;;;23.38;5.30;;;;;;;26.42;47.84;98525.34;5010877;28;20045;-66
2022/03/11 12:25:54;;;;;;;26.63;5.57;;;;;;;26.39;46.96;98522.97;5012941;28;20041;-63
2022/03/11 12:28:42;;;;;;;27.42;5.35;;;;;;;26.32;47.92;98532.47;5006490;28;20050;-65
2022/03/11 12:31:31;;;;;;;24.08;6.20;;;;;;;26.32;49.50;98532.47;5007717;28;20050;-64
2022/03/11 12:34:13;;;;;;;27.40;5.82;;;;;;;26.26;49.05;98534.72;5007359;28;20050;-65
2022/03/11 12:37:01;;;;;;;24.40;6.03;;;;;;;26.05;49.04;98528.84;5002993;28;20119;-64
2022/03/11 12:39:43;;;;;;;16.30;5.38;;;;;;;25.94;47.35;98534.34;5002093;28;20822;-65
2022/03/11 12:42:48;;;;;;;24.08;5.78;;;;;;;25.84;47.43;98539.66;5004277;28;20543;-64
2022/03/11 12:45:46;;;;;;;18.38;5.40;;;;;;;25.70;47.99;98528.75;5004003;28;20042;-63
2022/03/11 12:48:24;;;;;;;19.55;7.43;;;;;;;25.69;47.40;98529.72;5002810;28;20065;-63
2022/03/11 12:51:21;;;;;;;20.38;6.25;;;;;;;25.60;48.42;98533.22;5006454;28;20107;-62
2022/03/11 12:54:03;;;;;;;31.02;6.88;;;;;;;25.61;49.77;98535.72;5004124;28;20668;-62